Flight Track Log - Related Links

Times and Time Zones

All times are in EDT time to prevent confusion due to time zone crossing. See the SWA2068 flight status page for this flight to view local times or setup timezone preferences in your user account.

Time Position Orientation Groundspeed Altitude Reporting Facility
EDT Latitude Longitude Course Direction KTS MPH feet Rate Location/Type
Sat 07:15:54 AM 36.1333 -86.6833 292° West 159 183 1,400  Level Nashville TRACON
Sat 07:16:42 AM 36.1500 -86.7333 292° West 189 217 2,900 2,333 Climbing Nashville TRACON
Sat 07:17:42 AM 36.2000 -86.7167 15° North 285 328 5,600 3,288 Climbing Nashville TRACON
Sat 07:18:26 AM 36.1925 -86.6433 97° East 407 468 8,600 3,808 Climbing Memphis Center
Sat 07:19:26 AM 36.1936 -86.5378 89° East 348 400 12,200 3,850 Climbing Memphis Center
Sat 07:20:26 AM 36.1961 -86.4169 88° East 338 389 16,300 3,600 Climbing Memphis Center
Sat 07:21:26 AM 36.1961 -86.2908 90° East 357 411 19,400 3,050 Climbing Memphis Center
Sat 07:22:26 AM 36.1978 -86.1572 89° East 372 428 22,400 2,600 Climbing Memphis Center
Sat 07:23:26 AM 36.2206 -86.0247 78° East 393 452 24,600 2,140 Climbing Memphis Center
Sat 07:24:49 AM 36.2983 -85.8508 61° Northeast 443 510 27,500 2,125 Climbing Indianapolis Center
Sat 07:25:50 AM 36.3675 -85.7017 60° Northeast 455 524 29,700 1,967 Climbing Indianapolis Center
Sat 07:26:51 AM 36.4361 -85.5597 59° Northeast 473 544 31,500 1,721 Climbing Indianapolis Center
Sat 07:27:52 AM 36.5061 -85.4131 59° Northeast 488 562 33,200 1,820 Climbing Indianapolis Center
Sat 07:28:53 AM 36.5758 -85.2628 60° Northeast 497 572 35,200 1,770 Climbing Indianapolis Center
Sat 07:29:54 AM 36.6367 -85.1103 64° Northeast 497 572 36,800 1,835 Climbing Indianapolis Center
Sat 07:30:54 AM 36.6856 -84.9528 69° East 487 560 38,900 1,736 Climbing Indianapolis Center
Sat 07:31:55 AM 36.7331 -84.7972 69° East 478 550 40,300 1,033 Climbing Indianapolis Center
Sat 07:32:56 AM 36.7792 -84.6408 70° East 480 552 41,000 344 Climbing Indianapolis Center
Sat 07:33:57 AM 36.8239 -84.4925 69° East 477 549 41,000  Level Indianapolis Center
Sat 07:34:58 AM 36.8719 -84.3364 69° East 480 552 41,000  Level Indianapolis Center
Sat 07:35:59 AM 36.9178 -84.1794 70° East 479 551 41,000  Level Indianapolis Center
Sat 07:37:00 AM 36.9642 -84.0244 69° East 476 548 41,000  Level Indianapolis Center
Sat 07:38:01 AM 37.0108 -83.8689 69° East 476 548 41,000  Level Indianapolis Center
Sat 07:39:02 AM 37.0642 -83.6881 70° East 474 545 41,000  Level Indianapolis Center
Sat 07:40:03 AM 37.1086 -83.5372 70° East 464 534 41,000  Level Indianapolis Center
Sat 07:41:04 AM 37.1522 -83.3853 70° East 461 531 41,000  Level Indianapolis Center
Sat 07:42:05 AM 37.1969 -83.2331 70° East 462 532 41,000  Level Indianapolis Center
Sat 07:43:06 AM 37.2411 -83.0792 70° East 464 534 41,000  Level Indianapolis Center
Sat 07:44:07 AM 37.2853 -82.9250 70° East 464 534 41,000  Level Indianapolis Center
Sat 07:45:08 AM 37.3300 -82.7703 70° East 466 536 41,000  Level Indianapolis Center
Sat 07:46:09 AM 37.3736 -82.6156 70° East 468 539 41,000  Level Indianapolis Center
Sat 07:47:10 AM 37.4164 -82.4636 70° East 462 532 41,000  Level Indianapolis Center
Sat 07:48:11 AM 37.4592 -82.3097 71° East 463 533 41,000  Level Indianapolis Center
Sat 07:49:12 AM 37.5017 -82.1572 71° East 462 532 41,000  Level Indianapolis Center
Sat 07:50:13 AM 37.5444 -82.0031 71° East 465 535 41,000  Level Indianapolis Center
Sat 07:51:14 AM 37.5861 -81.8486 71° East 465 535 41,000  Level Indianapolis Center
Sat 07:52:15 AM 37.6283 -81.6939 71° East 466 536 41,000  Level Indianapolis Center
Sat 07:53:16 AM 37.6700 -81.5403 71° East 462 532 41,000  Level Indianapolis Center
Sat 07:54:17 AM 37.7111 -81.3900 71° East 463 533 41,000  Level Indianapolis Center
Sat 07:55:18 AM 37.7600 -81.2114 71° East 462 532 41,000  Level Indianapolis Center
Sat 07:56:19 AM 37.8017 -81.0639 70° East 459 528 41,000  Level Indianapolis Center
Sat 07:57:20 AM 37.8461 -80.9022 71° East 463 533 41,000  Level Indianapolis Center
Sat 07:58:21 AM 37.8897 -80.7472 70° East 464 534 41,000  Level Indianapolis Center
Sat 07:59:22 AM 37.9308 -80.5964 71° East 463 533 41,000  Level Indianapolis Center
Sat 08:00:23 AM 37.9744 -80.4342 71° East 465 535 41,000  Level Indianapolis Center
Sat 08:01:24 AM 38.0161 -80.2825 71° East 467 537 41,000  Level Indianapolis Center
Sat 08:02:25 AM 38.0575 -80.1308 71° East 467 537 41,000  Level Indianapolis Center
Sat 08:03:26 AM 38.0992 -79.9800 71° East 465 535 41,000  Level Indianapolis Center
Sat 08:04:27 AM 38.1381 -79.8267 72° East 466 536 41,000  Level Indianapolis Center
Sat 08:05:28 AM 38.1867 -79.6453 71° East 462 532 41,000  Level Indianapolis Center
Sat 08:06:29 AM 38.2267 -79.4939 71° East 462 532 41,000 -1,343 Level Indianapolis Center
Sat 08:07:42 AM 38.2783 -79.3081 70° East 456 525 38,000 -3,023 Descending Washington Center
Sat 08:08:40 AM 38.3164 -79.1564 72° East 456 525 34,400 -3,882 Descending Washington Center
Sat 08:09:41 AM 38.3539 -79.0178 71° East 461 531 30,300 -3,731 Descending Washington Center
Sat 08:10:39 AM 38.3917 -78.8581 73° East 461 531 27,000 -1,664 Descending Washington Center
Sat 08:11:40 AM 38.4286 -78.7164 72° East 441 507 27,000  Level Washington Center
Sat 08:12:41 AM 38.4636 -78.5747 72° East 428 493 27,000  Level Washington Center
Sat 08:13:39 AM 38.4983 -78.4331 73° East 417 480 27,000 -893 Level Washington Center
Sat 08:14:42 AM 38.5350 -78.2908 72° East 417 480 25,200 -1,934 Descending Washington Center
Sat 08:15:40 AM 38.5672 -78.1542 73° East 417 480 23,100 -2,085 Descending Washington Center
Sat 08:16:40 AM 38.6011 -78.0225 72° East 407 468 21,100 -1,950 Descending Washington Center
Sat 08:17:40 AM 38.6350 -77.8881 72° East 394 453 19,200 -1,050 Descending Washington Center
Sat 08:18:40 AM 38.6458 -77.7608 84° East 377 434 19,000 -99 Descending Washington Center
Sat 08:19:41 AM 38.6542 -77.6333 85° East 365 420 19,000 -492 Level Washington Center
Sat 08:20:42 AM 38.6606 -77.5058 86° East 360 414 18,000 -1,438 Descending Washington Center
Sat 08:21:42 AM 38.6686 -77.3839 85° East 349 402 16,100 -1,333 Descending Washington Center
Sat 08:22:39 AM 38.6767 -77.2642 85° East 344 396 15,400 -1,119 Descending Washington Center
Sat 08:23:40 AM 38.6822 -77.1528 86° East 333 383 13,900 -1,587 Descending Washington Center
Sat 08:24:40 AM 38.6878 -77.0386 86° East 326 375 12,200 -1,240 Descending Washington Center
Sat 08:25:41 AM 38.6953 -76.9269 85° East 321 369 11,400 -1,041 Descending Washington Center
Sat 08:26:41 AM 38.7008 -76.8181 86° East 316 364 10,100 -1,288 Descending Washington Center
Sat 08:28:52 AM 38.7667 -76.6000 69° East 278 320 7,300 -1,445 Descending Potomac TRACON
Sat 08:29:52 AM 38.8167 -76.5333 46° Northeast 284 327 5,500 -1,579 Descending Potomac TRACON
Sat 08:30:46 AM 38.8833 -76.5333 360° North 273 314 4,300 -1,158 Descending Potomac TRACON
Sat 08:31:46 AM 38.9500 -76.5500 349° North 257 296 3,300 -750 Descending Potomac TRACON
Sat 08:32:46 AM 39.0167 -76.5667 349° North 225 259 2,800 -522 Descending Potomac TRACON
Sat 08:33:41 AM 39.0667 -76.5833 345° North 184 212 2,300 -678 Descending Potomac TRACON
Sat 08:34:41 AM 39.1000 -76.6167 322° Northwest 149 171 1,500 -750 Descending Potomac TRACON
Sat 08:35:41 AM 39.1333 -76.6333 339° North 130 150 800 -700 Descending Potomac TRACON
Sat 08:37:00 AM 39.1667 -76.6667 339° North  Level FlightAware Approximate
Sat 08:44:00 AM 39.1754 -76.6683 339° North  Level Estimated
Sat 08:45:00 AM 39.1754 -76.6683 339° North  Level Estimated
Sat 08:46:00 AM 39.1754 -76.6683 339° North  Level Estimated
Sat 08:47:00 AM 39.1754 -76.6683 339° North  Level Estimated
Sat 08:48:00 AM 39.1754 -76.6683 339° North  Level Estimated

Login

Don't have an account? Register now (free) for customized features, flight alerts, and more!